Time;durP1;ratioP1;P1;durP2;ratioP2;P2;SDS_P1;SDS_P2;PMS_P1;PMS_P2;Temp;Humidity;BMP_temperature;BMP_pressure;BME280_temperature;BME280_humidity;BME280_pressure;Samples;Min_cycle;Max_cycle;Signal;HPM_P1;HPM_P2
2022/01/25 00:27:00;;;;;;;72.68;33.08;;;-2.60;99.90;;;;;;5048569;28;20055;-65
2022/01/25 00:32:21;;;;;;;68.13;33.55;;;-2.60;99.90;;;;;;5032782;28;20483;-65
2022/01/25 00:34:49;;;;;;;69.20;33.55;;;-2.60;99.90;;;;;;5049137;28;20041;-65
2022/01/25 00:37:16;;;;;;;81.25;36.33;;;-2.60;99.90;;;;;;5047472;28;20091;-65
2022/01/25 00:39:43;;;;;;;70.22;34.78;;;-2.60;99.90;;;;;;5048844;28;20098;-65
2022/01/25 00:42:10;;;;;;;81.10;35.25;;;-2.60;99.90;;;;;;5048346;28;20369;-65
2022/01/25 00:44:39;;;;;;;95.65;40.53;;;-2.60;99.90;;;;;;5048127;28;20063;-65
2022/01/25 00:47:07;;;;;;;71.75;33.70;;;-2.60;99.90;;;;;;5048195;28;20048;-65
2022/01/25 00:49:37;;;;;;;82.38;35.20;;;-2.60;99.90;;;;;;5047688;28;20052;-65
2022/01/25 00:52:20;;;;;;;83.95;34.45;;;-2.60;99.90;;;;;;5049079;28;20568;-65
2022/01/25 00:54:48;;;;;;;79.82;33.00;;;-2.60;99.90;;;;;;5048680;28;20033;-65
2022/01/25 00:57:15;;;;;;;81.68;35.47;;;-2.60;99.90;;;;;;5047275;28;20110;-65
2022/01/25 00:59:42;;;;;;;84.75;33.25;;;-2.60;99.90;;;;;;5048350;28;20059;-65
2022/01/25 01:02:11;;;;;;;79.13;35.17;;;-2.60;99.90;;;;;;5047768;28;20045;-65
2022/01/25 01:04:42;;;;;;;74.03;32.28;;;-2.70;99.90;;;;;;5048364;28;20051;-65
2022/01/25 01:07:13;;;;;;;72.28;33.80;;;-2.70;99.90;;;;;;5048271;28;20228;-65
2022/01/25 01:09:43;;;;;;;61.42;29.17;;;-2.70;99.90;;;;;;5028154;28;20048;-65
2022/01/25 01:12:18;;;;;;;69.32;31.95;;;-2.80;99.90;;;;;;5028164;28;20392;-65
2022/01/25 01:15:09;;;;;;;85.60;32.55;;;-2.80;99.90;;;;;;5026406;28;20040;-65
2022/01/25 01:29:02;;;;;;;58.25;28.75;;;-2.80;99.90;;;;;;5034113;28;20045;-65
2022/01/25 01:29:20;;;;;;;65.88;32.17;;;-3.00;99.90;;;;;;5048105;28;20048;-65
2022/01/25 01:40:06;;;;;;;72.03;31.42;;;-3.00;99.90;;;;;;4988605;28;20049;-65
2022/01/25 01:47:39;;;;;;;76.35;32.88;;;-3.10;99.90;;;;;;5047849;28;20219;-64
2022/01/25 01:50:13;;;;;;;69.68;32.47;;;-3.10;99.90;;;;;;5045708;28;20048;-65
2022/01/25 01:52:41;;;;;;;74.30;34.40;;;-3.10;99.90;;;;;;5048000;28;20040;-65
2022/01/25 01:55:08;;;;;;;71.85;32.72;;;-3.10;99.90;;;;;;5047874;28;20044;-65
2022/01/25 01:57:35;;;;;;;71.10;32.17;;;-3.10;99.90;;;;;;5048104;28;20044;-65
2022/01/25 02:00:05;;;;;;;72.40;32.92;;;-3.10;99.90;;;;;;5047779;28;20366;-65
2022/01/25 02:02:38;;;;;;;68.25;30.95;;;-3.10;99.90;;;;;;5047098;28;20098;-65
2022/01/25 02:05:05;;;;;;;67.70;31.45;;;-3.10;99.90;;;;;;5047228;28;20067;-65
2022/01/25 02:07:32;;;;;;;72.63;30.92;;;-3.10;99.90;;;;;;5047618;28;20048;-65
2022/01/25 02:09:59;;;;;;;61.22;29.92;;;-3.10;99.90;;;;;;5047876;28;20059;-65
2022/01/25 02:12:27;;;;;;;61.25;27.13;;;-3.00;99.90;;;;;;5047871;28;20135;-64
2022/01/25 02:14:55;;;;;;;64.95;29.20;;;-3.00;99.90;;;;;;5043425;28;20577;-65
2022/01/25 02:22:53;;;;;;;66.63;29.77;;;-3.00;99.90;;;;;;5051677;28;20049;-65
2022/01/25 02:25:20;;;;;;;67.75;30.58;;;-3.00;99.90;;;;;;5040986;28;20110;-64
2022/01/25 02:27:47;;;;;;;86.53;32.70;;;-3.00;99.90;;;;;;5061331;28;20056;-64
2022/01/25 02:30:14;;;;;;;77.30;31.25;;;-3.00;99.90;;;;;;5071694;28;20043;-64
2022/01/25 02:32:41;;;;;;;72.32;29.08;;;-3.10;99.90;;;;;;5070802;28;20439;-64
2022/01/25 02:35:08;;;;;;;81.68;33.53;;;-3.10;99.90;;;;;;5071743;28;20259;-64
2022/01/25 02:37:37;;;;;;;82.55;32.92;;;-3.10;99.90;;;;;;5071404;28;20040;-64
2022/01/25 02:40:06;;;;;;;85.95;31.40;;;-3.10;99.90;;;;;;5070894;28;20044;-63
2022/01/25 02:42:33;;;;;;;74.88;31.27;;;-3.10;99.90;;;;;;5071771;28;20044;-64
2022/01/25 02:45:00;;;;;;;78.28;31.83;;;-3.10;99.90;;;;;;5051471;28;20529;-64
2022/01/25 02:50:13;;;;;;;82.22;32.42;;;-3.10;99.90;;;;;;5050352;28;20052;-65
2022/01/25 02:52:40;;;;;;;75.70;31.73;;;-3.10;99.90;;;;;;5051005;28;20347;-64
2022/01/25 02:55:07;;;;;;;72.82;30.23;;;-3.10;99.90;;;;;;5050654;28;20057;-64
2022/01/25 02:57:34;;;;;;;68.60;29.88;;;-3.10;99.90;;;;;;5051290;28;20505;-64
2022/01/25 03:00:06;;;;;;;70.40;31.33;;;-3.10;99.90;;;;;;5051044;28;20045;-65
2022/01/25 03:02:35;;;;;;;67.00;32.40;;;-3.10;99.90;;;;;;5050663;28;20056;-64
2022/01/25 03:05:03;;;;;;;58.22;28.27;;;-3.10;99.90;;;;;;5051335;28;20067;-64
2022/01/25 03:07:29;;;;;;;58.60;27.08;;;-3.00;99.90;;;;;;5050880;28;20048;-64
2022/01/25 03:09:58;;;;;;;65.88;28.70;;;-3.10;99.90;;;;;;5051108;28;20507;-64
2022/01/25 03:12:49;;;;;;;57.33;26.63;;;-3.00;99.90;;;;;;5048302;28;20059;-64
2022/01/25 03:17:53;;;;;;;68.45;29.38;;;-3.00;99.90;;;;;;5030239;28;20045;-64
2022/01/25 03:20:33;;;;;;;59.65;26.13;;;-3.00;99.90;;;;;;5030112;28;20608;-64
2022/01/25 03:23:05;;;;;;;61.33;26.90;;;-3.00;99.90;;;;;;5030595;28;20052;-65
2022/01/25 03:25:32;;;;;;;61.42;29.25;;;-3.00;99.90;;;;;;5030381;28;20052;-64
2022/01/25 03:27:59;;;;;;;63.17;30.10;;;-2.90;99.90;;;;;;5029862;28;20048;-64
2022/01/25 03:30:26;;;;;;;60.40;26.55;;;-2.90;99.90;;;;;;5030075;28;20067;-65
2022/01/25 03:32:53;;;;;;;54.47;26.70;;;-2.90;99.90;;;;;;5030470;28;20064;-64
2022/01/25 03:35:20;;;;;;;63.85;28.38;;;-2.90;99.90;;;;;;5030033;28;20041;-64
2022/01/25 03:37:47;;;;;;;68.75;29.90;;;-2.90;99.90;;;;;;5030353;28;20550;-64
2022/01/25 03:40:14;;;;;;;71.60;31.70;;;-2.90;99.90;;;;;;5029696;28;20102;-64
2022/01/25 03:42:41;;;;;;;75.45;31.13;;;-2.90;99.90;;;;;;5030430;28;20052;-64
2022/01/25 03:45:17;;;;;;;75.65;31.42;;;-2.90;99.90;;;;;;5049629;28;20044;-64
2022/01/25 03:47:57;;;;;;;69.13;29.73;;;-2.90;99.90;;;;;;5050234;28;20275;-64
2022/01/25 03:50:25;;;;;;;65.47;28.75;;;-2.90;99.90;;;;;;5048902;28;20442;-64
2022/01/25 03:52:52;;;;;;;72.28;28.70;;;-3.00;99.90;;;;;;5049848;28;20513;-65
2022/01/25 03:55:19;;;;;;;74.43;30.02;;;-3.00;99.90;;;;;;5050155;28;20119;-64
2022/01/25 03:57:46;;;;;;;71.63;29.10;;;-3.00;99.90;;;;;;5049646;28;20041;-64
2022/01/25 04:00:14;;;;;;;65.80;29.25;;;-3.00;99.90;;;;;;5049367;28;20048;-64
2022/01/25 04:02:49;;;;;;;60.85;26.80;;;-3.00;99.90;;;;;;5029466;28;20055;-64
2022/01/25 04:05:22;;;;;;;64.65;29.15;;;-3.00;99.90;;;;;;5029269;28;20041;-64
2022/01/25 04:07:50;;;;;;;58.58;27.73;;;-3.00;99.90;;;;;;5034751;28;20254;-64
2022/01/25 04:10:18;;;;;;;66.15;28.33;;;-3.10;99.90;;;;;;5049583;28;20044;-65
2022/01/25 04:12:48;;;;;;;61.45;26.70;;;-3.10;99.90;;;;;;5049292;28;20663;-65
2022/01/25 04:15:15;;;;;;;58.92;25.48;;;-3.10;99.90;;;;;;5048977;28;20098;-64
2022/01/25 04:17:45;;;;;;;69.35;29.92;;;-3.20;99.90;;;;;;5037154;28;20036;-64
2022/01/25 04:25:27;;;;;;;68.30;30.67;;;-3.20;99.90;;;;;;5029245;28;20080;-64
2022/01/25 04:27:54;;;;;;;62.70;27.10;;;-3.20;99.90;;;;;;5029717;28;20049;-64
2022/01/25 04:30:21;;;;;;;66.18;29.35;;;-3.10;99.90;;;;;;5028868;28;20117;-64
2022/01/25 04:33:40;;;;;;;57.95;27.30;;;-3.20;99.90;;;;;;5029298;28;20075;-64
2022/01/25 04:56:44;;;;;;;47.83;21.60;;;-3.30;99.90;;;;;;5047960;28;20441;-64
2022/01/25 05:02:04;;;;;;;55.28;24.02;;;-3.40;99.90;;;;;;5048446;28;20723;-64
2022/01/25 05:04:37;;;;;;;64.05;27.40;;;-3.30;99.90;;;;;;5047938;28;20051;-63
2022/01/25 05:07:26;;;;;;;51.95;22.92;;;-3.40;99.90;;;;;;5046949;28;20428;-64
2022/01/25 05:09:52;;;;;;;56.40;23.27;;;-3.40;99.90;;;;;;5027842;28;20049;-63
2022/01/25 05:12:34;;;;;;;60.70;27.20;;;-3.40;99.90;;;;;;5028852;28;20048;-64
2022/01/25 05:18:11;;;;;;;51.33;24.15;;;-3.50;99.90;;;;;;5030169;28;20049;-63
2022/01/25 05:23:24;;;;;;;70.07;25.25;;;-3.60;99.90;;;;;;5028284;28;20466;-64
2022/01/25 05:25:51;;;;;;;55.78;25.83;;;-3.60;99.90;;;;;;5027792;28;20150;-64
2022/01/25 05:28:18;;;;;;;50.13;22.20;;;-3.70;99.90;;;;;;5028994;28;20041;-64
2022/01/25 05:30:45;;;;;;;49.22;22.50;;;-3.70;99.90;;;;;;5027935;28;20076;-64
2022/01/25 05:33:11;;;;;;;55.13;22.83;;;-3.80;99.90;;;;;;5027557;28;20442;-64
2022/01/25 05:35:38;;;;;;;49.42;24.15;;;-3.80;99.90;;;;;;5027637;28;20088;-64
2022/01/25 05:38:05;;;;;;;55.53;22.38;;;-3.80;99.90;;;;;;5027809;28;20045;-64
2022/01/25 05:40:48;;;;;;;52.40;24.05;;;-3.90;99.90;;;;;;5027712;28;20185;-64
2022/01/25 05:48:47;;;;;;;52.10;20.52;;;-3.90;99.90;;;;;;5021788;28;20372;-64
2022/01/25 05:51:14;;;;;;;46.42;20.80;;;-3.90;99.90;;;;;;5039330;28;20473;-64
2022/01/25 05:53:42;;;;;;;41.08;19.02;;;-4.00;99.90;;;;;;5047836;28;20044;-64
2022/01/25 05:56:09;;;;;;;41.83;20.25;;;-4.00;99.90;;;;;;5047655;28;20044;-64
2022/01/25 05:58:36;;;;;;;49.50;19.88;;;-4.00;99.90;;;;;;5047161;28;20036;-64
2022/01/25 06:01:03;;;;;;;39.13;18.15;;;-4.00;99.90;;;;;;5047691;28;20482;-64
2022/01/25 06:03:30;;;;;;;40.13;20.15;;;-4.00;99.90;;;;;;5045910;28;20538;-64
2022/01/25 06:05:57;;;;;;;47.42;22.48;;;-4.00;99.90;;;;;;5048188;28;20052;-64
2022/01/25 06:08:23;;;;;;;38.72;19.20;;;-4.00;99.90;;;;;;5047054;28;20635;-64
2022/01/25 06:10:50;;;;;;;43.38;20.67;;;-4.00;99.90;;;;;;5048010;28;20079;-64
2022/01/25 06:13:17;;;;;;;43.13;19.27;;;-4.10;99.90;;;;;;5047774;28;20056;-67
2022/01/25 06:15:44;;;;;;;43.63;19.63;;;-4.10;99.90;;;;;;5045617;28;20572;-64
2022/01/25 06:18:10;;;;;;;41.33;18.27;;;-4.10;99.90;;;;;;5047733;28;20048;-65
2022/01/25 06:20:37;;;;;;;36.28;18.88;;;-4.10;99.90;;;;;;5025914;28;20106;-64
2022/01/25 06:23:04;;;;;;;38.70;19.33;;;-4.10;99.90;;;;;;5027752;28;20276;-64
2022/01/25 06:25:31;;;;;;;40.10;20.70;;;-4.20;99.90;;;;;;5027719;28;20079;-64
2022/01/25 06:27:58;;;;;;;36.83;19.13;;;-4.20;99.90;;;;;;5028252;28;20051;-64
2022/01/25 06:30:24;;;;;;;40.75;20.15;;;-4.20;99.90;;;;;;5027093;28;20049;-64
2022/01/25 06:32:51;;;;;;;32.78;17.27;;;-4.20;99.90;;;;;;5027430;28;20519;-64
2022/01/25 06:35:19;;;;;;;38.28;19.88;;;-4.20;99.90;;;;;;5028086;28;20041;-64
2022/01/25 06:37:46;;;;;;;32.00;17.25;;;-4.20;99.90;;;;;;5027195;28;20648;-65
2022/01/25 06:40:14;;;;;;;32.97;18.35;;;-4.20;99.90;;;;;;5027162;28;20075;-64
2022/01/25 06:42:40;;;;;;;40.08;19.17;;;-4.20;99.90;;;;;;5026494;28;20045;-64
2022/01/25 06:45:17;;;;;;;29.85;15.77;;;-4.30;99.90;;;;;;5038348;28;20044;-64
2022/01/25 06:47:46;;;;;;;32.70;15.52;;;-4.30;99.90;;;;;;5047980;28;20263;-63
2022/01/25 06:50:14;;;;;;;33.97;16.67;;;-4.30;99.90;;;;;;5046725;28;20105;-55
2022/01/25 06:52:42;;;;;;;38.90;18.73;;;-4.30;99.90;;;;;;5046353;28;20059;-55
2022/01/25 06:55:19;;;;;;;38.45;17.70;;;-4.30;99.90;;;;;;5047368;28;20515;-56
2022/01/25 06:57:46;;;;;;;37.38;17.85;;;-4.30;99.90;;;;;;5046414;28;20036;-55
2022/01/25 07:00:22;;;;;;;37.15;18.35;;;-4.30;99.90;;;;;;5048426;28;20250;-55
2022/01/25 07:02:49;;;;;;;31.77;17.08;;;-4.30;99.90;;;;;;5050710;28;20053;-55
2022/01/25 07:05:16;;;;;;;38.10;18.02;;;-4.30;99.90;;;;;;5036308;28;20635;-55
2022/01/25 07:07:43;;;;;;;33.17;16.33;;;-4.30;99.90;;;;;;5040940;28;20471;-55
2022/01/25 07:10:09;;;;;;;32.38;16.60;;;-4.30;99.90;;;;;;5032543;28;20068;-55
2022/01/25 07:12:36;;;;;;;32.30;16.20;;;-4.30;99.90;;;;;;5049768;28;20426;-55
2022/01/25 07:15:04;;;;;;;38.35;18.52;;;-4.30;99.90;;;;;;5049483;28;20384;-55
2022/01/25 07:17:30;;;;;;;39.92;19.73;;;-4.30;99.90;;;;;;5050086;28;20041;-55
2022/01/25 07:19:57;;;;;;;40.25;20.25;;;-4.30;99.90;;;;;;5043881;28;20048;-55
2022/01/25 07:22:24;;;;;;;45.53;23.42;;;-4.30;99.90;;;;;;5031449;28;20045;-56
2022/01/25 07:24:50;;;;;;;38.33;19.40;;;-4.20;99.90;;;;;;5049210;28;20125;-55
2022/01/25 07:27:17;;;;;;;28.77;13.57;;;-4.00;99.90;;;;;;5049303;28;20933;-55
2022/01/25 07:29:44;;;;;;;30.63;13.52;;;-3.80;99.90;;;;;;5047235;28;20498;-55
2022/01/25 07:32:11;;;;;;;19.92;10.48;;;-3.60;99.90;;;;;;5048665;28;20117;-55
2022/01/25 07:34:45;;;;;;;22.05;10.50;;;-3.30;99.90;;;;;;5049072;28;20309;-56
2022/01/25 07:37:13;;;;;;;23.20;11.88;;;-3.10;99.90;;;;;;5048915;28;20418;-55
2022/01/25 07:39:42;;;;;;;24.63;11.95;;;-2.90;99.90;;;;;;5048952;28;20967;-55
2022/01/25 07:42:10;;;;;;;22.13;11.60;;;-2.80;99.90;;;;;;5049099;28;20049;-55
2022/01/25 07:44:49;;;;;;;24.02;11.98;;;-2.70;99.90;;;;;;5046897;28;20049;-55
2022/01/25 07:47:24;;;;;;;22.75;11.95;;;-2.60;99.90;;;;;;5049918;28;20049;-56
2022/01/25 07:49:58;;;;;;;28.98;13.35;;;-2.50;99.90;;;;;;5047785;28;20052;-55
2022/01/25 07:52:25;;;;;;;27.58;12.98;;;-2.30;99.90;;;;;;5049482;28;20049;-55
2022/01/25 07:54:51;;;;;;;;;;;-2.20;99.90;;;;;;5049230;28;20052;-56
2022/01/25 07:57:18;;;;;;;25.00;11.15;;;-2.00;99.90;;;;;;5048733;28;20500;-56
2022/01/25 07:59:45;;;;;;;24.73;12.00;;;-1.80;99.90;;;;;;5049076;28;20106;-56
2022/01/25 08:02:16;;;;;;;30.38;14.35;;;-1.70;99.90;;;;;;5048409;28;20036;-56
2022/01/25 08:04:55;;;;;;;25.70;14.15;;;-1.50;99.90;;;;;;5048868;28;20036;-56
2022/01/25 08:07:48;;;;;;;26.60;11.75;;;-1.30;99.90;;;;;;5005699;28;20831;-55
2022/01/25 08:10:32;;;;;;;26.00;12.02;;;-1.10;99.90;;;;;;4988238;28;20080;-55
2022/01/25 08:13:09;;;;;;;24.38;11.77;;;-0.80;99.90;;;;;;4996510;28;20072;-55
2022/01/25 08:15:53;;;;;;;22.52;12.35;;;-0.60;99.90;;;;;;5005483;28;20045;-55
2022/01/25 08:18:37;;;;;;;23.92;11.93;;;-0.40;99.90;;;;;;4995961;28;20053;-56
2022/01/25 08:21:26;;;;;;;23.77;11.57;;;-0.10;99.90;;;;;;4970128;28;20100;-56
2022/01/25 08:24:07;;;;;;;23.65;10.68;;;0.10;99.90;;;;;;4970037;28;20073;-56
2022/01/25 08:26:48;;;;;;;26.20;12.57;;;0.20;99.90;;;;;;4982735;28;20085;-56
2022/01/25 08:29:38;;;;;;;22.33;11.32;;;0.30;99.90;;;;;;4973253;28;20140;-55
2022/01/25 08:32:28;;;;;;;28.75;12.02;;;0.40;99.90;;;;;;4908196;29;20067;-56
2022/01/25 08:35:12;;;;;;;24.27;12.75;;;0.60;99.90;;;;;;4907596;29;20073;-57
2022/01/25 08:38:02;;;;;;;24.10;11.52;;;0.60;99.90;;;;;;4919497;28;20063;-56
2022/01/25 08:40:43;;;;;;;18.38;9.93;;;0.70;99.90;;;;;;4868276;29;20061;-56
2022/01/25 08:43:36;;;;;;;22.48;9.93;;;0.60;99.90;;;;;;4841573;29;20064;-57
2022/01/25 08:46:22;;;;;;;21.13;11.02;;;0.60;99.90;;;;;;4855148;29;20263;-56
2022/01/25 08:49:07;;;;;;;18.88;10.63;;;0.60;99.90;;;;;;4870589;29;20061;-55
2022/01/25 08:51:50;;;;;;;18.13;10.32;;;0.70;99.90;;;;;;4870190;29;20115;-56
2022/01/25 08:54:32;;;;;;;27.88;11.15;;;0.70;99.90;;;;;;4859814;29;20136;-55
2022/01/25 08:57:12;;;;;;;23.40;13.60;;;0.80;99.90;;;;;;4851409;29;20065;-55
2022/01/25 09:00:12;;;;;;;22.75;10.57;;;0.90;99.90;;;;;;4824076;29;20537;-55
2022/01/25 09:02:41;;;;;;;19.65;11.02;;;1.00;99.90;;;;;;4851714;29;20065;-55
2022/01/25 09:05:09;;;;;;;21.17;10.05;;;1.10;99.90;;;;;;4851524;29;20163;-56
2022/01/25 09:07:36;;;;;;;26.42;10.88;;;1.20;99.90;;;;;;4851514;29;20821;-56
2022/01/25 09:10:04;;;;;;;29.25;13.02;;;1.30;99.90;;;;;;4901127;29;20067;-56
2022/01/25 09:12:30;;;;;;;22.48;10.35;;;1.40;99.90;;;;;;4924146;29;20312;-56
2022/01/25 09:14:57;;;;;;;;;;;1.50;99.90;;;;;;4927700;29;20058;-56
2022/01/25 09:17:24;;;;;;;19.30;10.30;;;1.70;99.90;;;;;;4930595;28;19989;-56
2022/01/25 09:19:50;;;;;;;;;;;1.80;99.90;;;;;;4998012;28;20072;-56
2022/01/25 09:22:20;;;;;;;18.95;10.55;;;1.90;99.90;;;;;;5034018;28;19924;-57
2022/01/25 09:24:49;;;;;;;24.55;11.82;;;2.10;99.90;;;;;;5025759;28;20571;-56
2022/01/25 09:27:16;;;;;;;19.67;10.93;;;2.20;99.90;;;;;;5027721;28;20207;-57
2022/01/25 09:29:42;;;;;;;;;;;2.30;99.90;;;;;;5027681;28;20822;-57
2022/01/25 09:32:09;;;;;;;19.98;11.00;;;2.50;99.90;;;;;;5026184;28;20805;-57
2022/01/25 09:34:36;;;;;;;20.73;11.32;;;2.70;99.90;;;;;;5026703;28;20114;-48
2022/01/25 09:37:03;;;;;;;;;;;2.90;99.90;;;;;;5027704;28;20106;-49
2022/01/25 09:39:30;;;;;;;21.05;10.40;;;3.10;99.90;;;;;;5026571;28;20487;-48
2022/01/25 09:41:57;;;;;;;19.95;10.40;;;3.30;99.90;;;;;;5027684;28;20047;-50
2022/01/25 09:44:24;;;;;;;21.92;10.75;;;3.50;99.90;;;;;;5040937;28;20170;-47
2022/01/25 09:46:56;;;;;;;20.80;10.13;;;3.70;99.90;;;;;;5045918;28;20852;-57
2022/01/25 09:49:23;;;;;;;22.65;10.27;;;3.90;99.90;;;;;;5045130;28;20047;-57
2022/01/25 09:51:50;;;;;;;;;;;4.10;99.90;;;;;;5046215;28;20106;-57
2022/01/25 09:54:17;;;;;;;26.57;11.37;;;4.20;99.90;;;;;;5046700;28;19924;-58
2022/01/25 09:56:43;;;;;;;25.08;12.23;;;4.40;99.90;;;;;;5044130;28;20561;-72
2022/01/25 09:59:10;;;;;;;;;;;4.50;99.90;;;;;;5047831;28;20187;-58
2022/01/25 10:01:43;;;;;;;22.33;10.85;;;4.70;99.90;;;;;;5045484;28;20481;-58
2022/01/25 10:04:33;;;;;;;25.83;10.52;;;4.80;99.90;;;;;;5045795;28;20653;-58
2022/01/25 10:07:04;;;;;;;25.05;12.35;;;5.00;99.90;;;;;;5046161;28;20120;-58
2022/01/25 10:09:33;;;;;;;19.85;10.90;;;5.40;99.90;;;;;;5044723;28;20052;-58
2022/01/25 10:12:18;;;;;;;19.77;11.68;;;5.60;99.90;;;;;;5046844;28;20052;-58
2022/01/25 10:15:00;;;;;;;22.17;10.38;;;5.90;99.00;;;;;;5045927;28;20048;-58
2022/01/25 10:17:32;;;;;;;19.45;11.13;;;6.00;97.20;;;;;;5046625;28;20037;-58
2022/01/25 10:19:59;;;;;;;21.67;11.27;;;6.10;95.80;;;;;;5045072;28;20059;-58
2022/01/25 10:22:26;;;;;;;26.60;11.75;;;6.20;93.90;;;;;;5045522;28;20251;-58
2022/01/25 10:24:53;;;;;;;19.77;11.25;;;6.30;94.00;;;;;;5025620;28;20040;-58
2022/01/25 10:27:58;;;;;;;;;;;6.30;93.30;;;;;;5027811;28;20049;-58
2022/01/25 10:30:09;;;;;;;37.03;19.27;;;6.50;92.90;;;;;;5025971;28;20233;-58
2022/01/25 10:32:39;;;;;;;41.63;23.60;;;6.50;93.10;;;;;;5027091;28;20238;-57
2022/01/25 10:35:16;;;;;;;41.05;23.35;;;6.50;93.60;;;;;;5035327;28;20452;-57
2022/01/25 10:37:43;;;;;;;40.38;21.10;;;6.30;94.40;;;;;;5051065;28;20690;-56
2022/01/25 10:40:10;;;;;;;36.10;21.60;;;6.10;94.90;;;;;;5050381;28;20430;-58
2022/01/25 10:42:38;;;;;;;40.25;23.02;;;6.00;95.50;;;;;;5050262;28;20036;-58
2022/01/25 10:45:09;;;;;;;36.17;20.52;;;6.00;95.50;;;;;;5049274;28;20044;-56
2022/01/25 10:47:42;;;;;;;44.53;21.58;;;5.90;96.30;;;;;;5047714;28;20370;-56
2022/01/25 10:50:18;;;;;;;35.47;19.30;;;6.00;96.20;;;;;;5050662;28;20210;-56
2022/01/25 10:52:46;;;;;;;38.03;22.45;;;6.10;96.10;;;;;;5050347;28;20055;-56
2022/01/25 10:55:14;;;;;;;40.20;21.25;;;6.30;95.80;;;;;;5050603;28;20118;-57
2022/01/25 10:57:40;;;;;;;38.42;20.10;;;6.40;95.50;;;;;;5049867;28;20262;-57
2022/01/25 11:04:39;;;;;;;38.10;20.92;;;6.80;94.30;;;;;;5049503;28;20040;-56
2022/01/25 11:07:10;;;;;;;37.20;21.35;;;7.00;92.70;;;;;;5050388;28;20044;-56
2022/01/25 11:09:43;;;;;;;39.28;22.17;;;7.10;92.70;;;;;;5049383;28;20056;-56
2022/01/25 11:12:15;;;;;;;37.83;21.70;;;7.20;92.30;;;;;;5048703;28;20655;-57
2022/01/25 11:14:57;;;;;;;44.38;23.95;;;7.30;92.60;;;;;;5050006;28;20060;-57
2022/01/25 11:17:28;;;;;;;40.75;23.25;;;7.40;91.90;;;;;;5049810;28;20416;-57
2022/01/25 11:19:57;;;;;;;42.38;24.15;;;7.50;91.00;;;;;;5049238;28;20207;-57
2022/01/25 11:22:25;;;;;;;41.78;24.30;;;7.50;90.30;;;;;;5050505;28;20461;-57
2022/01/25 11:25:06;;;;;;;41.22;21.67;;;7.60;90.30;;;;;;5038501;28;20536;-57
2022/01/25 11:27:33;;;;;;;38.92;22.33;;;7.60;90.00;;;;;;5029516;28;20059;-57
2022/01/25 11:30:05;;;;;;;38.00;21.65;;;7.70;89.30;;;;;;5030421;28;20106;-56
2022/01/25 11:32:38;;;;;;;42.13;24.42;;;7.70;90.00;;;;;;5029815;28;20265;-57
2022/01/25 11:35:08;;;;;;;40.58;24.02;;;7.80;89.80;;;;;;5029598;28;20514;-57
2022/01/25 11:37:41;;;;;;;41.70;24.40;;;7.90;89.40;;;;;;5029645;28;20053;-57
2022/01/25 11:40:38;;;;;;;46.15;25.33;;;7.90;89.00;;;;;;5027495;28;20059;-57
2022/01/25 11:43:14;;;;;;;46.53;25.05;;;7.90;87.80;;;;;;5032297;28;20508;-57
2022/01/25 11:45:48;;;;;;;41.20;23.50;;;7.80;89.30;;;;;;5048718;28;20098;-57
2022/01/25 11:48:33;;;;;;;42.45;24.10;;;7.70;88.30;;;;;;5049019;28;20256;-57
2022/01/25 11:51:05;;;;;;;41.63;24.52;;;7.70;89.20;;;;;;5029833;28;20037;-57
2022/01/25 11:53:39;;;;;;;49.88;25.42;;;7.70;90.00;;;;;;5028045;28;20041;-57
2022/01/25 11:56:09;;;;;;;49.88;26.00;;;7.80;90.80;;;;;;5029653;28;20559;-57
2022/01/25 11:58:37;;;;;;;42.63;24.50;;;7.90;90.50;;;;;;5029984;28;20068;-57
2022/01/25 12:01:19;;;;;;;42.22;24.80;;;8.10;89.60;;;;;;5048074;28;20040;-57
2022/01/25 12:03:50;;;;;;;37.90;23.25;;;8.20;89.70;;;;;;5049136;28;20841;-57
2022/01/25 12:06:22;;;;;;;39.72;23.52;;;8.30;89.40;;;;;;5048415;28;20055;-57
2022/01/25 12:09:16;;;;;;;40.88;23.70;;;8.50;88.50;;;;;;5048443;28;20044;-57
2022/01/25 12:12:06;;;;;;;39.95;24.00;;;8.70;87.40;;;;;;5047714;28;20130;-57
2022/01/25 12:14:40;;;;;;;50.15;26.45;;;8.80;85.70;;;;;;5048772;28;20052;-57
2022/01/25 12:17:24;;;;;;;38.67;22.33;;;8.90;84.40;;;;;;5048229;28;20044;-57
2022/01/25 12:20:00;;;;;;;41.17;22.67;;;9.00;84.90;;;;;;5047993;28;20731;-57
2022/01/25 12:25:08;;;;;;;38.47;21.65;;;9.20;83.10;;;;;;5046147;28;20047;-57
2022/01/25 12:27:42;;;;;;;39.33;21.38;;;9.40;83.00;;;;;;5026989;28;20064;-57
2022/01/25 12:30:12;;;;;;;36.35;21.45;;;9.50;81.90;;;;;;5027613;28;20052;-57
2022/01/25 12:32:50;;;;;;;42.38;23.05;;;9.60;81.50;;;;;;5027607;28;20408;-57
2022/01/25 12:35:39;;;;;;;34.78;20.95;;;9.70;80.80;;;;;;5028100;28;20781;-58
2022/01/25 12:38:09;;;;;;;37.30;21.13;;;9.80;79.10;;;;;;5026424;28;20041;-56
2022/01/25 12:40:41;;;;;;;36.83;20.40;;;9.80;79.00;;;;;;5027210;28;20051;-57
2022/01/25 12:43:22;;;;;;;33.45;20.63;;;9.90;79.00;;;;;;5032252;28;20498;-55
2022/01/25 12:45:55;;;;;;;30.40;18.25;;;10.10;78.50;;;;;;5047331;28;20044;-56
2022/01/25 12:48:38;;;;;;;32.63;21.27;;;10.20;78.10;;;;;;5048554;28;20052;-55
2022/01/25 12:51:07;;;;;;;39.63;20.98;;;10.40;77.20;;;;;;5027360;28;20110;-56
2022/01/25 12:53:37;;;;;;;32.28;19.42;;;10.60;76.90;;;;;;5033816;28;20080;-56
2022/01/25 12:56:09;;;;;;;34.60;21.58;;;10.70;76.00;;;;;;5048085;28;20048;-55
2022/01/25 12:58:38;;;;;;;35.83;19.58;;;10.80;74.30;;;;;;5047141;28;20041;-56
2022/01/25 13:01:11;;;;;;;37.55;22.00;;;10.90;73.70;;;;;;5047162;28;20044;-56
2022/01/25 13:03:48;;;;;;;36.78;21.20;;;11.00;72.10;;;;;;5048249;28;20090;-56
2022/01/25 13:06:22;;;;;;;32.22;20.80;;;11.00;70.30;;;;;;5048085;28;20505;-56
2022/01/25 13:09:09;;;;;;;36.75;22.10;;;11.00;69.60;;;;;;5046929;28;20260;-56
2022/01/25 13:14:33;;;;;;;35.78;21.40;;;10.70;71.80;;;;;;5047981;28;20979;-56
2022/01/25 13:17:03;;;;;;;34.80;20.88;;;10.70;72.40;;;;;;5047534;28;20041;-57
2022/01/25 13:19:36;;;;;;;35.97;21.08;;;10.60;73.40;;;;;;5047812;28;20059;-57
2022/01/25 13:22:09;;;;;;;43.28;22.92;;;10.70;73.30;;;;;;5048179;28;20090;-57
2022/01/25 13:24:45;;;;;;;36.47;21.30;;;10.80;71.90;;;;;;5047828;28;20478;-57
2022/01/25 13:27:16;;;;;;;38.03;21.33;;;10.80;71.50;;;;;;5036944;28;20060;-56
2022/01/25 13:32:43;;;;;;;30.27;19.70;;;10.60;72.00;;;;;;5028628;28;20110;-57
2022/01/25 13:35:18;;;;;;;31.50;20.45;;;10.60;71.30;;;;;;5028196;28;20120;-56
2022/01/25 13:38:17;;;;;;;31.90;19.40;;;10.70;71.40;;;;;;5027520;28;20052;-56
2022/01/25 13:46:36;;;;;;;30.15;20.02;;;10.80;67.70;;;;;;5048044;28;20129;-57
2022/01/25 13:49:17;;;;;;;31.23;19.42;;;10.90;65.70;;;;;;5047936;28;20111;-57
2022/01/25 13:51:45;;;;;;;30.63;19.70;;;11.00;66.60;;;;;;5047602;28;20573;-57
2022/01/25 13:54:21;;;;;;;28.27;17.85;;;11.10;66.50;;;;;;5047820;28;20071;-56
2022/01/25 13:56:48;;;;;;;31.67;19.92;;;11.20;65.40;;;;;;5047363;28;20492;-57
2022/01/25 13:59:16;;;;;;;;;;;11.30;64.80;;;;;;5046801;28;20044;-56
2022/01/25 14:01:43;;;;;;;38.15;19.15;;;11.20;64.50;;;;;;5047941;28;19928;-57
2022/01/25 14:04:17;;;;;;;32.30;19.15;;;11.20;64.00;;;;;;5047453;28;20052;-57
2022/01/25 14:06:51;;;;;;;28.92;18.05;;;11.40;63.60;;;;;;5047338;28;20376;-56
2022/01/25 14:09:24;;;;;;;35.22;19.85;;;11.50;63.60;;;;;;5048789;28;20094;-57
2022/01/25 14:25:48;;;;;;;35.45;20.15;;;11.90;63.10;;;;;;5051477;28;20090;-57
2022/01/25 14:28:24;;;;;;;25.40;16.92;;;11.90;62.70;;;;;;5041471;28;20061;-57
2022/01/25 14:30:56;;;;;;;27.67;18.67;;;11.90;62.80;;;;;;5030355;28;20103;-57
2022/01/25 14:33:30;;;;;;;27.85;17.85;;;11.80;63.10;;;;;;5031375;28;20146;-56
2022/01/25 14:36:04;;;;;;;28.58;18.13;;;11.70;63.20;;;;;;5029993;28;20126;-56
2022/01/25 14:38:40;;;;;;;29.40;20.10;;;11.70;63.10;;;;;;5031308;28;20414;-56
2022/01/25 14:41:14;;;;;;;29.65;18.58;;;11.70;63.30;;;;;;5031542;28;20107;-56
2022/01/25 14:43:51;;;;;;;28.00;18.45;;;11.60;63.00;;;;;;5038667;28;20363;-56
2022/01/25 14:46:31;;;;;;;29.77;18.33;;;11.60;63.50;;;;;;5031516;28;20052;-56
2022/01/25 14:49:28;;;;;;;27.27;17.83;;;11.50;63.60;;;;;;5035027;28;20056;-56
2022/01/25 14:52:00;;;;;;;30.92;19.25;;;11.40;63.90;;;;;;5051260;28;20067;-56
2022/01/25 14:54:32;;;;;;;25.75;16.45;;;11.00;64.20;;;;;;5049656;28;20103;-56
2022/01/25 14:57:05;;;;;;;34.92;20.10;;;10.60;65.70;;;;;;5048678;28;20134;-56
2022/01/25 14:59:38;;;;;;;30.55;18.83;;;10.10;67.50;;;;;;5049756;28;20439;-56
2022/01/25 15:02:08;;;;;;;35.38;20.00;;;9.40;69.90;;;;;;5050275;28;20454;-56
2022/01/25 15:04:40;;;;;;;31.67;19.05;;;8.70;73.20;;;;;;5050788;28;20082;-56
2022/01/25 15:07:13;;;;;;;35.47;20.92;;;8.10;75.70;;;;;;5050842;28;20630;-56
2022/01/25 15:09:49;;;;;;;31.17;19.38;;;7.50;78.90;;;;;;5033975;28;20116;-56
2022/01/25 15:12:17;;;;;;;39.90;22.67;;;7.10;82.50;;;;;;5049994;28;20059;-55